createdAt,value
2018-01-11T00:00:56.808Z,949.72
2018-01-11T00:01:56.811Z,949.71
2018-01-11T00:02:56.813Z,949.72
2018-01-11T00:03:56.819Z,949.68
2018-01-11T00:04:56.817Z,949.70
2018-01-11T00:05:56.820Z,949.68
2018-01-11T00:06:56.821Z,949.64
2018-01-11T00:07:56.822Z,949.69
2018-01-11T00:08:56.830Z,949.67
2018-01-11T00:09:56.828Z,949.68
2018-01-11T00:10:56.830Z,949.71
2018-01-11T00:11:56.831Z,949.69
2018-01-11T00:12:56.834Z,949.71
2018-01-11T00:13:56.836Z,949.71
2018-01-11T00:14:56.840Z,949.70
2018-01-11T00:15:56.840Z,949.73
2018-01-11T00:16:56.842Z,949.76
2018-01-11T00:17:56.847Z,949.75
2018-01-11T00:18:56.846Z,949.74
2018-01-11T00:19:56.849Z,949.73
2018-01-11T00:20:56.852Z,949.71
2018-01-11T00:21:56.852Z,949.74
2018-01-11T00:22:56.855Z,949.75
2018-01-11T00:23:56.857Z,949.77
2018-01-11T00:24:56.860Z,949.77
2018-01-11T00:25:56.862Z,949.76
2018-01-11T00:26:56.866Z,949.73
2018-01-11T00:27:56.865Z,949.74
2018-01-11T00:28:56.874Z,949.74
2018-01-11T00:29:56.870Z,949.70
2018-01-11T00:30:56.873Z,949.70
2018-01-11T00:31:56.873Z,949.72
2018-01-11T00:32:56.876Z,949.68
2018-01-11T00:33:56.878Z,949.69
2018-01-11T00:34:56.880Z,949.66
2018-01-11T00:35:56.882Z,949.67
2018-01-11T00:36:56.884Z,949.71
2018-01-11T00:37:56.887Z,949.64
2018-01-11T00:38:56.889Z,949.65
2018-01-11T00:39:56.890Z,949.62
2018-01-11T00:40:56.893Z,949.66
2018-01-11T00:41:56.895Z,949.67
2018-01-11T00:42:56.897Z,949.66
2018-01-11T00:43:56.899Z,949.64
2018-01-11T00:44:56.901Z,949.64
2018-01-11T00:45:56.905Z,949.64
2018-01-11T00:46:56.907Z,949.64
2018-01-11T00:47:56.907Z,949.65
2018-01-11T00:48:56.910Z,949.67
2018-01-11T00:49:56.912Z,949.68
2018-01-11T00:50:56.914Z,949.65
2018-01-11T00:51:56.916Z,949.69
2018-01-11T00:52:56.918Z,949.65
2018-01-11T00:53:56.921Z,949.67
2018-01-11T00:54:56.924Z,949.67
2018-01-11T00:55:56.923Z,949.67
2018-01-11T00:56:56.927Z,949.66
2018-01-11T00:57:56.950Z,949.66
2018-01-11T00:58:56.931Z,949.64
2018-01-11T00:59:56.935Z,949.68
2018-01-11T01:00:56.936Z,949.66
2018-01-11T01:01:56.939Z,949.66
2018-01-11T01:02:56.940Z,949.68
2018-01-11T01:03:56.941Z,949.68
2018-01-11T01:04:56.946Z,949.60
2018-01-11T01:05:56.946Z,949.62
2018-01-11T01:06:56.948Z,949.63
2018-01-11T01:07:56.950Z,949.66
2018-01-11T01:08:56.952Z,949.62
2018-01-11T01:09:56.955Z,949.66
2018-01-11T01:10:56.957Z,949.64
2018-01-11T01:11:56.958Z,949.65
2018-01-11T01:12:56.961Z,949.65
2018-01-11T01:13:56.968Z,949.64
2018-01-11T01:14:56.964Z,949.64
2018-01-11T01:15:56.966Z,949.68
2018-01-11T01:16:56.969Z,949.66
2018-01-11T01:17:56.971Z,949.72
2018-01-11T01:18:56.973Z,949.72
2018-01-11T01:19:56.974Z,949.73
2018-01-11T01:20:56.978Z,949.72
2018-01-11T01:21:56.979Z,949.70
2018-01-11T01:22:56.980Z,949.70
2018-01-11T01:23:56.985Z,949.72
2018-01-11T01:24:56.984Z,949.74
2018-01-11T01:25:56.986Z,949.69
2018-01-11T01:26:56.989Z,949.71
2018-01-11T01:27:56.992Z,949.72
2018-01-11T01:28:56.994Z,949.69
2018-01-11T01:29:56.995Z,949.70
2018-01-11T01:30:56.997Z,949.71
2018-01-11T01:31:56.998Z,949.69
2018-01-11T01:32:57.001Z,949.67
2018-01-11T01:33:57.002Z,949.68
2018-01-11T01:34:57.005Z,949.67
2018-01-11T01:35:57.007Z,949.67
2018-01-11T01:36:57.015Z,949.71
2018-01-11T01:37:57.011Z,949.67
2018-01-11T01:38:57.013Z,949.68
2018-01-11T01:39:57.014Z,949.67
2018-01-11T01:40:57.023Z,949.64
2018-01-11T01:41:57.025Z,949.62
2018-01-11T01:42:57.025Z,949.62
2018-01-11T01:43:57.026Z,949.65
2018-01-11T01:44:57.027Z,949.66
2018-01-11T01:45:57.028Z,949.68
2018-01-11T01:46:57.030Z,949.69
2018-01-11T01:47:57.031Z,949.66
2018-01-11T01:48:57.032Z,949.65
2018-01-11T01:49:57.035Z,949.63
2018-01-11T01:50:57.039Z,949.61
2018-01-11T01:51:57.039Z,949.59
2018-01-11T01:52:57.042Z,949.61
2018-01-11T01:53:57.043Z,949.63
2018-01-11T01:54:57.045Z,949.62
2018-01-11T01:55:57.048Z,949.63
2018-01-11T01:56:57.049Z,949.64
2018-01-11T01:57:57.052Z,949.65
2018-01-11T01:58:57.054Z,949.70
2018-01-11T01:59:57.055Z,949.69
2018-01-11T02:00:57.058Z,949.71
2018-01-11T02:01:57.060Z,949.71
2018-01-11T02:02:57.062Z,949.73
2018-01-11T02:03:57.063Z,949.74
2018-01-11T02:04:57.067Z,949.75
2018-01-11T02:05:57.068Z,949.72
2018-01-11T02:06:57.070Z,949.73
2018-01-11T02:07:57.071Z,949.71
2018-01-11T02:08:57.074Z,949.71
2018-01-11T02:09:57.076Z,949.68
2018-01-11T02:10:57.078Z,949.70
2018-01-11T02:11:57.080Z,949.70
2018-01-11T02:12:57.087Z,949.69
2018-01-11T02:13:57.084Z,949.72
2018-01-11T02:14:57.086Z,949.71
2018-01-11T02:15:57.088Z,949.72
2018-01-11T02:16:57.091Z,949.73
2018-01-11T02:17:57.093Z,949.71
2018-01-11T02:18:57.094Z,949.67
2018-01-11T02:19:57.095Z,949.65
2018-01-11T02:20:57.098Z,949.69
2018-01-11T02:21:57.101Z,949.66
2018-01-11T02:22:57.102Z,949.67
2018-01-11T02:23:57.104Z,949.68
2018-01-11T02:24:57.112Z,949.70
2018-01-11T02:25:57.114Z,949.66
2018-01-11T02:26:57.111Z,949.65
2018-01-11T02:27:57.114Z,949.66
2018-01-11T02:28:57.113Z,949.65
2018-01-11T02:29:57.116Z,949.68
2018-01-11T02:30:57.119Z,949.71
2018-01-11T02:31:57.119Z,949.68
2018-01-11T02:32:57.122Z,949.67
2018-01-11T02:33:57.124Z,949.67
2018-01-11T02:34:57.126Z,949.68
2018-01-11T02:35:57.128Z,949.64
2018-01-11T02:36:57.132Z,949.63
2018-01-11T02:37:57.133Z,949.64
2018-01-11T02:38:57.134Z,949.62
2018-01-11T02:39:57.136Z,949.65
2018-01-11T02:40:57.138Z,949.61
2018-01-11T02:41:57.138Z,949.63
2018-01-11T02:42:57.142Z,949.64
2018-01-11T02:43:57.143Z,949.61
2018-01-11T02:44:57.145Z,949.63
2018-01-11T02:45:57.164Z,949.67
2018-01-11T02:46:57.150Z,949.63
2018-01-11T02:47:57.152Z,949.65
2018-01-11T02:48:57.153Z,949.62
2018-01-11T02:49:57.156Z,949.65
2018-01-11T02:50:57.158Z,949.67
2018-01-11T02:51:57.164Z,949.64
2018-01-11T02:52:57.161Z,949.65
2018-01-11T02:53:57.164Z,949.64
2018-01-11T02:54:57.166Z,949.65
2018-01-11T02:55:57.167Z,949.65
2018-01-11T02:56:57.170Z,949.64
2018-01-11T02:57:57.174Z,949.69
2018-01-11T02:58:57.172Z,949.67
2018-01-11T02:59:57.175Z,949.66
2018-01-11T03:00:57.177Z,949.64
2018-01-11T03:01:57.179Z,949.66
2018-01-11T03:02:57.184Z,949.62
2018-01-11T03:03:57.184Z,949.64
2018-01-11T03:04:57.185Z,949.61
2018-01-11T03:05:57.187Z,949.66
2018-01-11T03:06:57.189Z,949.67
2018-01-11T03:07:57.191Z,949.67
2018-01-11T03:08:57.194Z,949.65
2018-01-11T03:09:57.196Z,949.66
2018-01-11T03:10:57.200Z,949.66
2018-01-11T03:11:57.198Z,949.64
2018-01-11T03:12:57.201Z,949.62
2018-01-11T03:13:57.207Z,949.61
2018-01-11T03:14:57.208Z,949.63
2018-01-11T03:15:57.214Z,949.59
2018-01-11T03:16:57.209Z,949.60
2018-01-11T03:17:57.213Z,949.61
2018-01-11T03:18:57.216Z,949.61
2018-01-11T03:19:57.215Z,949.63
2018-01-11T03:20:57.217Z,949.61
2018-01-11T03:21:57.219Z,949.66
2018-01-11T03:22:57.223Z,949.63
2018-01-11T03:23:57.240Z,949.66
2018-01-11T03:24:57.224Z,949.66
2018-01-11T03:25:57.229Z,949.67
2018-01-11T03:26:57.228Z,949.67
2018-01-11T03:27:57.230Z,949.64
2018-01-11T03:28:57.359Z,949.64
2018-01-11T03:29:57.240Z,949.63
2018-01-11T03:30:57.237Z,949.62
2018-01-11T03:31:57.236Z,949.60
2018-01-11T03:32:57.242Z,949.59
2018-01-11T03:33:57.331Z,949.57
2018-01-11T03:34:57.244Z,949.60
2018-01-11T03:35:57.246Z,949.58
2018-01-11T03:36:57.248Z,949.57
2018-01-11T03:37:57.249Z,949.52
2018-01-11T03:38:57.252Z,949.58
2018-01-11T03:39:57.254Z,949.55
2018-01-11T03:40:57.256Z,949.60
2018-01-11T03:41:57.257Z,949.60
2018-01-11T03:42:57.261Z,949.63
2018-01-11T03:43:57.326Z,949.60
2018-01-11T03:44:57.266Z,949.59
2018-01-11T03:45:57.265Z,949.59
2018-01-11T03:46:57.269Z,949.59
2018-01-11T03:47:57.268Z,949.59
2018-01-11T03:48:57.350Z,949.60
2018-01-11T03:49:57.274Z,949.62
2018-01-11T03:50:57.275Z,949.60
2018-01-11T03:51:57.276Z,949.63
2018-01-11T03:52:57.279Z,949.62
2018-01-11T03:53:57.351Z,949.62
2018-01-11T03:54:57.284Z,949.64
2018-01-11T03:55:57.284Z,949.66
2018-01-11T03:56:57.286Z,949.63
2018-01-11T03:57:57.289Z,949.63
2018-01-11T03:58:57.331Z,949.63
2018-01-11T03:59:57.293Z,949.62
2018-01-11T04:00:57.299Z,949.62
2018-01-11T04:01:57.298Z,949.62
2018-01-11T04:02:57.300Z,949.63
2018-01-11T04:03:57.343Z,949.65
2018-01-11T04:04:57.301Z,949.63
2018-01-11T04:05:57.304Z,949.64
2018-01-11T04:06:57.306Z,949.63
2018-01-11T04:07:57.307Z,949.66
2018-01-11T04:08:57.352Z,949.62
2018-01-11T04:09:57.312Z,949.63
2018-01-11T04:10:57.312Z,949.64
2018-01-11T04:11:57.315Z,949.66
2018-01-11T04:12:57.318Z,949.63
2018-01-11T04:13:57.393Z,949.65
2018-01-11T04:14:57.322Z,949.66
2018-01-11T04:15:57.323Z,949.61
2018-01-11T04:16:57.325Z,949.69
2018-01-11T04:17:57.331Z,949.68
2018-01-11T04:18:57.381Z,949.65
2018-01-11T04:19:57.333Z,949.68
2018-01-11T04:20:57.333Z,949.69
2018-01-11T04:21:57.335Z,949.68
2018-01-11T04:22:57.338Z,949.67
2018-01-11T04:23:57.439Z,949.69
2018-01-11T04:24:57.342Z,949.69
2018-01-11T04:25:57.343Z,949.70
2018-01-11T04:26:57.345Z,949.70
2018-01-11T04:27:57.348Z,949.71
2018-01-11T04:28:57.399Z,949.74
2018-01-11T04:29:57.351Z,949.73
2018-01-11T04:30:57.353Z,949.71
2018-01-11T04:31:57.354Z,949.74
2018-01-11T04:32:57.357Z,949.73
2018-01-11T04:33:57.408Z,949.75
2018-01-11T04:34:57.361Z,949.77
2018-01-11T04:35:57.361Z,949.73
2018-01-11T04:36:57.365Z,949.71
2018-01-11T04:37:57.368Z,949.73
2018-01-11T04:38:57.419Z,949.77
2018-01-11T04:39:57.368Z,949.78
2018-01-11T04:40:57.373Z,949.76
2018-01-11T04:41:57.372Z,949.77
2018-01-11T04:42:57.375Z,949.78
2018-01-11T04:43:57.426Z,949.77
2018-01-11T04:44:57.378Z,949.76
2018-01-11T04:45:57.380Z,949.76
2018-01-11T04:46:57.382Z,949.75
2018-01-11T04:47:57.385Z,949.78
2018-01-11T04:48:57.434Z,949.76
2018-01-11T04:49:57.387Z,949.79
2018-01-11T04:50:57.391Z,949.77
2018-01-11T04:51:57.399Z,949.78
2018-01-11T04:52:57.393Z,949.73
2018-01-11T04:53:57.394Z,949.76
2018-01-11T04:54:57.397Z,949.77
2018-01-11T04:55:57.399Z,949.77
2018-01-11T04:56:57.401Z,949.76
2018-01-11T04:57:57.404Z,949.79
2018-01-11T04:58:57.459Z,949.75
2018-01-11T04:59:57.409Z,949.77
2018-01-11T05:00:57.407Z,949.80
2018-01-11T05:01:57.410Z,949.80
2018-01-11T05:02:57.411Z,949.34
2018-01-11T05:03:57.413Z,949.77
2018-01-11T05:04:57.418Z,949.75
2018-01-11T05:05:57.425Z,949.80
2018-01-11T05:06:57.418Z,949.79
2018-01-11T05:07:57.420Z,949.77
2018-01-11T05:08:57.423Z,949.76
2018-01-11T05:09:57.425Z,949.79
2018-01-11T05:10:57.427Z,949.80
2018-01-11T05:11:57.428Z,949.82
2018-01-11T05:12:57.430Z,949.84
2018-01-11T05:13:57.432Z,949.85
2018-01-11T05:14:57.434Z,949.88
2018-01-11T05:15:57.433Z,949.90
2018-01-11T05:16:57.440Z,949.87
2018-01-11T05:17:57.440Z,949.87
2018-01-11T05:18:57.442Z,949.90
2018-01-11T05:19:57.446Z,949.93
2018-01-11T05:20:57.447Z,949.86
2018-01-11T05:21:57.449Z,949.89
2018-01-11T05:22:57.451Z,949.89
2018-01-11T05:23:57.452Z,949.87
2018-01-11T05:24:57.455Z,949.89
2018-01-11T05:25:57.457Z,949.84
2018-01-11T05:26:57.465Z,949.89
2018-01-11T05:27:57.463Z,949.88
2018-01-11T05:28:57.462Z,949.89
2018-01-11T05:29:57.465Z,949.92
2018-01-11T05:30:57.467Z,949.92
2018-01-11T05:31:57.472Z,949.92
2018-01-11T05:32:57.471Z,949.91
2018-01-11T05:33:57.473Z,949.96
2018-01-11T05:34:57.476Z,949.94
2018-01-11T05:35:57.477Z,949.97
2018-01-11T05:36:57.479Z,949.99
2018-01-11T05:37:57.481Z,949.97
2018-01-11T05:38:57.484Z,950.01
2018-01-11T05:39:57.486Z,950.02
2018-01-11T05:40:57.488Z,950.06
2018-01-11T05:41:57.491Z,949.99
2018-01-11T05:42:57.492Z,950.03
2018-01-11T05:43:57.494Z,950.04
2018-01-11T05:44:57.496Z,950.03
2018-01-11T05:45:57.497Z,950.02
2018-01-11T05:46:57.501Z,950.03
2018-01-11T05:47:57.501Z,950.07
2018-01-11T05:48:57.505Z,950.09
2018-01-11T05:49:57.504Z,950.14
2018-01-11T05:50:57.508Z,950.14
2018-01-11T05:51:57.510Z,950.13
2018-01-11T05:52:57.513Z,950.20
2018-01-11T05:53:57.514Z,950.19
2018-01-11T05:54:57.517Z,950.24
2018-01-11T05:55:57.518Z,950.21
2018-01-11T05:56:57.521Z,950.25
2018-01-11T05:57:57.523Z,950.20
2018-01-11T05:58:57.525Z,950.24
2018-01-11T05:59:57.526Z,950.22
2018-01-11T06:00:57.529Z,950.22
2018-01-11T06:01:57.531Z,950.23
2018-01-11T06:02:57.534Z,950.29
2018-01-11T06:03:57.535Z,950.24
2018-01-11T06:04:57.538Z,950.28
2018-01-11T06:05:57.541Z,950.24
2018-01-11T06:06:57.542Z,950.23
2018-01-11T06:07:57.542Z,950.22
2018-01-11T06:08:57.546Z,950.21
2018-01-11T06:09:57.549Z,950.26
2018-01-11T06:10:57.551Z,950.24
2018-01-11T06:11:57.553Z,950.25
2018-01-11T06:12:57.554Z,950.21
2018-01-11T06:13:57.557Z,950.27
2018-01-11T06:14:57.560Z,950.30
2018-01-11T06:15:57.560Z,950.33
2018-01-11T06:16:57.564Z,950.35
2018-01-11T06:17:57.564Z,950.34
2018-01-11T06:18:57.567Z,950.33
2018-01-11T06:19:57.569Z,950.37
2018-01-11T06:20:57.571Z,950.37
2018-01-11T06:21:57.573Z,950.39
2018-01-11T06:22:57.576Z,950.37
2018-01-11T06:23:57.577Z,950.39
2018-01-11T06:24:57.579Z,950.36
2018-01-11T06:25:57.582Z,950.41
2018-01-11T06:26:57.584Z,950.39
2018-01-11T06:27:57.587Z,950.40
2018-01-11T06:28:57.588Z,950.43
2018-01-11T06:29:57.590Z,950.40
2018-01-11T06:30:57.594Z,950.36
2018-01-11T06:31:57.594Z,950.39
2018-01-11T06:32:57.600Z,950.36
2018-01-11T06:33:57.600Z,950.34
2018-01-11T06:34:57.604Z,950.08
2018-01-11T06:35:57.603Z,950.36
2018-01-11T06:36:57.609Z,950.38
2018-01-11T06:37:57.608Z,950.37
2018-01-11T06:38:57.612Z,950.35
2018-01-11T06:39:57.614Z,950.36
2018-01-11T06:40:57.615Z,950.40
2018-01-11T06:41:57.624Z,950.44
2018-01-11T06:42:57.626Z,950.40
2018-01-11T06:43:57.626Z,950.40
2018-01-11T06:44:57.629Z,950.38
2018-01-11T06:45:57.630Z,950.40
2018-01-11T06:46:57.629Z,950.39
2018-01-11T06:47:57.631Z,950.41
2018-01-11T06:48:57.635Z,950.39
2018-01-11T06:49:57.637Z,950.40
2018-01-11T06:50:57.637Z,950.39
2018-01-11T06:51:57.639Z,950.48
2018-01-11T06:52:57.660Z,950.51
2018-01-11T06:53:57.644Z,950.49
2018-01-11T06:54:57.654Z,950.54
2018-01-11T06:55:57.647Z,950.49
2018-01-11T06:56:57.650Z,950.48
2018-01-11T06:57:57.652Z,950.49
2018-01-11T06:58:57.655Z,950.49
2018-01-11T06:59:57.657Z,950.51
2018-01-11T07:00:57.660Z,950.52
2018-01-11T07:01:57.662Z,950.49
2018-01-11T07:02:57.663Z,950.50
2018-01-11T07:03:57.665Z,950.48
2018-01-11T07:04:57.667Z,950.46
2018-01-11T07:05:57.670Z,950.48
2018-01-11T07:06:57.674Z,950.55
2018-01-11T07:07:57.674Z,950.52
2018-01-11T07:08:57.676Z,950.55
2018-01-11T07:09:57.679Z,950.55
2018-01-11T07:10:57.682Z,950.59
2018-01-11T07:11:57.683Z,950.60
2018-01-11T07:12:57.688Z,950.55
2018-01-11T07:13:57.693Z,950.61
2018-01-11T07:14:57.694Z,950.60
2018-01-11T07:15:57.696Z,950.61
2018-01-11T07:16:57.697Z,950.63
2018-01-11T07:17:57.698Z,950.63
2018-01-11T07:18:57.699Z,950.62
2018-01-11T07:19:57.700Z,950.68
2018-01-11T07:20:57.713Z,950.67
2018-01-11T07:21:57.714Z,950.67
2018-01-11T07:22:57.743Z,950.68
2018-01-11T07:23:57.716Z,950.68
2018-01-11T07:24:57.717Z,950.71
2018-01-11T07:25:57.718Z,950.70
2018-01-11T07:26:57.716Z,950.74
2018-01-11T07:27:57.718Z,950.79
2018-01-11T07:28:57.742Z,950.78
2018-01-11T07:29:57.724Z,950.76
2018-01-11T07:30:57.725Z,950.79
2018-01-11T07:31:57.728Z,950.81
2018-01-11T07:32:57.729Z,950.79
2018-01-11T07:33:57.733Z,950.83
2018-01-11T07:34:57.733Z,950.87
2018-01-11T07:35:57.735Z,950.82
2018-01-11T07:36:57.746Z,950.93
2018-01-11T07:37:57.743Z,950.91
2018-01-11T07:38:57.743Z,950.97
2018-01-11T07:39:57.744Z,950.96
2018-01-11T07:40:57.748Z,950.96
2018-01-11T07:41:57.749Z,950.94
2018-01-11T07:42:57.750Z,950.98
2018-01-11T07:43:57.753Z,950.99
2018-01-11T07:44:57.767Z,951.04
2018-01-11T07:45:57.756Z,951.02
2018-01-11T07:46:57.760Z,951.06
2018-01-11T07:47:57.761Z,951.09
2018-01-11T07:48:57.764Z,951.09
2018-01-11T07:49:57.766Z,951.11
2018-01-11T07:50:57.768Z,951.10
2018-01-11T07:51:57.771Z,951.11
2018-01-11T07:52:57.782Z,951.10
2018-01-11T07:53:57.779Z,951.12
2018-01-11T07:54:57.780Z,951.13
2018-01-11T07:55:57.781Z,951.13
2018-01-11T07:56:57.787Z,951.14
2018-01-11T07:57:57.783Z,951.18
2018-01-11T07:58:57.785Z,951.15
2018-01-11T07:59:57.786Z,951.16
2018-01-11T08:00:57.789Z,951.14
2018-01-11T08:01:57.799Z,951.14
2018-01-11T08:02:57.798Z,951.19
2018-01-11T08:03:57.803Z,951.21
2018-01-11T08:04:57.802Z,951.25
2018-01-11T08:05:57.804Z,951.25
2018-01-11T08:06:57.801Z,951.28
2018-01-11T08:07:57.804Z,951.29
2018-01-11T08:08:57.804Z,951.32
2018-01-11T08:09:57.808Z,951.30
2018-01-11T08:10:57.810Z,951.34
2018-01-11T08:11:57.812Z,951.36
2018-01-11T08:12:57.815Z,951.34
2018-01-11T08:13:57.817Z,951.40
2018-01-11T08:14:57.826Z,951.39
2018-01-11T08:15:57.827Z,951.41
2018-01-11T08:16:57.829Z,951.45
2018-01-11T08:17:57.834Z,951.47
2018-01-11T08:18:57.829Z,951.48
2018-01-11T08:19:57.832Z,951.45
2018-01-11T08:20:57.834Z,951.48
2018-01-11T08:21:57.838Z,951.47
2018-01-11T08:22:57.839Z,951.44
2018-01-11T08:23:57.842Z,951.46
2018-01-11T08:24:57.844Z,951.49
2018-01-11T08:25:57.847Z,951.49
2018-01-11T08:26:57.849Z,951.52
2018-01-11T08:27:57.851Z,951.55
2018-01-11T08:28:57.894Z,951.55
2018-01-11T08:29:57.855Z,951.53
2018-01-11T08:30:57.860Z,951.56
2018-01-11T08:31:57.863Z,951.56
2018-01-11T08:32:57.869Z,951.55
2018-01-11T08:33:57.892Z,951.55
2018-01-11T08:34:57.870Z,951.52
2018-01-11T08:35:57.873Z,951.48
2018-01-11T08:36:57.875Z,951.51
2018-01-11T08:37:57.880Z,951.50
2018-01-11T08:38:57.898Z,951.53
2018-01-11T08:39:57.882Z,951.49
2018-01-11T08:40:57.900Z,951.53
2018-01-11T08:41:57.902Z,951.52
2018-01-11T08:42:57.901Z,951.52
2018-01-11T08:43:57.900Z,951.54
2018-01-11T08:44:57.903Z,951.51
2018-01-11T08:45:57.903Z,951.62
2018-01-11T08:46:57.903Z,951.56
2018-01-11T08:47:57.904Z,951.57
2018-01-11T08:48:57.932Z,951.59
2018-01-11T08:49:57.910Z,951.59
2018-01-11T08:50:57.911Z,951.63
2018-01-11T08:51:57.914Z,951.61
2018-01-11T08:52:57.916Z,951.63
2018-01-11T08:53:57.967Z,951.64
2018-01-11T08:54:57.918Z,951.67
2018-01-11T08:55:57.921Z,951.66
2018-01-11T08:56:57.921Z,951.69
2018-01-11T08:57:57.925Z,951.70
2018-01-11T08:58:57.925Z,951.70
2018-01-11T08:59:57.928Z,951.67
2018-01-11T09:00:57.928Z,951.71
2018-01-11T09:01:57.931Z,951.66
2018-01-11T09:02:57.932Z,951.67
2018-01-11T09:03:57.934Z,951.73
2018-01-11T09:04:57.936Z,951.71
2018-01-11T09:05:57.940Z,951.70
2018-01-11T09:06:57.942Z,951.74
2018-01-11T09:07:57.944Z,951.75
2018-01-11T09:08:57.997Z,951.75
2018-01-11T09:09:57.949Z,951.75
2018-01-11T09:10:57.954Z,951.75
2018-01-11T09:11:57.955Z,951.80
2018-01-11T09:12:57.957Z,951.82
2018-01-11T09:13:57.959Z,951.85
2018-01-11T09:14:57.962Z,951.82
2018-01-11T09:15:57.965Z,951.85
2018-01-11T09:16:57.967Z,951.87
2018-01-11T09:17:57.970Z,951.90
2018-01-11T09:18:57.984Z,951.93
2018-01-11T09:19:57.987Z,951.86
2018-01-11T09:20:57.984Z,951.92
2018-01-11T09:21:57.985Z,951.92
2018-01-11T09:22:57.986Z,951.89
2018-01-11T09:23:57.992Z,951.86
2018-01-11T09:24:57.996Z,951.86
2018-01-11T09:25:57.996Z,951.83
2018-01-11T09:26:57.998Z,951.84
2018-01-11T09:27:58.000Z,951.87
2018-01-11T09:28:58.003Z,951.80
2018-01-11T09:29:58.007Z,951.84
2018-01-11T09:30:58.012Z,951.80
2018-01-11T09:31:58.013Z,951.85
2018-01-11T09:32:58.017Z,951.82
2018-01-11T09:33:58.021Z,951.85
2018-01-11T09:34:58.022Z,951.80
2018-01-11T09:35:58.026Z,951.85
2018-01-11T09:36:58.029Z,951.84
2018-01-11T09:37:58.035Z,951.85
2018-01-11T09:38:58.039Z,951.86
2018-01-11T09:39:58.040Z,951.87
2018-01-11T09:40:58.046Z,951.89
2018-01-11T09:41:58.046Z,951.90
2018-01-11T09:42:58.056Z,951.90
2018-01-11T09:43:58.052Z,951.88
2018-01-11T09:44:58.056Z,951.91
2018-01-11T09:45:58.059Z,951.95
2018-01-11T09:46:58.064Z,951.92
2018-01-11T09:47:58.065Z,951.95
2018-01-11T09:48:58.093Z,951.93
2018-01-11T09:49:58.071Z,951.94
2018-01-11T09:50:58.084Z,951.98
2018-01-11T09:51:58.078Z,951.98
2018-01-11T09:52:58.083Z,951.93
2018-01-11T09:53:58.086Z,951.94
2018-01-11T09:54:58.087Z,951.92
2018-01-11T09:55:58.095Z,951.97
2018-01-11T09:56:58.097Z,951.97
2018-01-11T09:57:58.100Z,951.97
2018-01-11T09:58:58.104Z,951.96
2018-01-11T09:59:58.107Z,952.00
2018-01-11T10:00:58.111Z,952.05
2018-01-11T10:01:58.114Z,952.04
2018-01-11T10:02:58.118Z,952.07
2018-01-11T10:03:58.121Z,952.03
2018-01-11T10:04:58.125Z,952.05
2018-01-11T10:05:58.130Z,952.07
2018-01-11T10:06:58.133Z,952.01
2018-01-11T10:07:58.239Z,952.02
2018-01-11T10:08:58.140Z,952.03
2018-01-11T10:09:58.143Z,952.01
2018-01-11T10:10:58.148Z,952.04
2018-01-11T10:11:58.150Z,952.05
2018-01-11T10:12:58.152Z,952.01
2018-01-11T10:13:58.157Z,952.01
2018-01-11T10:14:58.164Z,952.03
2018-01-11T10:15:58.164Z,952.03
2018-01-11T10:16:58.168Z,952.01
2018-01-11T10:17:58.188Z,952.02
2018-01-11T10:18:58.175Z,952.08
2018-01-11T10:19:58.178Z,952.03
2018-01-11T10:20:58.187Z,952.05
2018-01-11T10:21:58.189Z,952.03
2018-01-11T10:22:58.190Z,952.03
2018-01-11T10:23:58.192Z,952.06
2018-01-11T10:24:58.195Z,952.07
2018-01-11T10:25:58.199Z,952.05
2018-01-11T10:26:58.207Z,952.05
2018-01-11T10:27:58.206Z,952.04
2018-01-11T10:28:58.208Z,952.06
2018-01-11T10:29:58.215Z,952.04
2018-01-11T10:30:58.215Z,952.00
2018-01-11T10:31:58.225Z,952.01
2018-01-11T10:32:58.222Z,951.98
2018-01-11T10:33:58.223Z,952.01
2018-01-11T10:34:58.231Z,952.01
2018-01-11T10:35:58.230Z,952.00
2018-01-11T10:36:58.233Z,952.08
2018-01-11T10:37:58.236Z,952.11
2018-01-11T10:38:58.240Z,952.04
2018-01-11T10:39:58.242Z,952.01
2018-01-11T10:40:58.246Z,952.03
2018-01-11T10:41:58.251Z,952.00
2018-01-11T10:42:58.252Z,952.07
2018-01-11T10:43:58.254Z,952.04
2018-01-11T10:44:58.259Z,952.02
2018-01-11T10:45:58.269Z,951.99
2018-01-11T10:46:58.271Z,951.99
2018-01-11T10:47:58.268Z,951.94
2018-01-11T10:48:58.272Z,951.98
2018-01-11T10:49:58.275Z,951.98
2018-01-11T10:50:58.278Z,951.99
2018-01-11T10:51:58.287Z,951.92
2018-01-11T10:52:58.286Z,951.96
2018-01-11T10:53:58.288Z,952.00
2018-01-11T10:54:58.293Z,951.97
2018-01-11T10:55:58.341Z,951.97
2018-01-11T10:56:58.300Z,951.95
2018-01-11T10:57:58.305Z,951.93
2018-01-11T10:58:58.309Z,951.97
2018-01-11T10:59:58.309Z,951.99
2018-01-11T11:00:58.316Z,951.97
2018-01-11T11:01:58.319Z,952.01
2018-01-11T11:02:58.322Z,951.97
2018-01-11T11:03:58.325Z,952.01
2018-01-11T11:04:58.329Z,952.02
2018-01-11T11:05:58.333Z,951.94
2018-01-11T11:06:58.337Z,951.98
2018-01-11T11:07:58.340Z,951.97
2018-01-11T11:08:58.343Z,951.93
2018-01-11T11:09:58.347Z,951.98
2018-01-11T11:10:58.350Z,951.91
2018-01-11T11:11:58.354Z,951.93
2018-01-11T11:12:58.360Z,951.92
2018-01-11T11:13:58.361Z,951.97
2018-01-11T11:14:58.365Z,951.97
2018-01-11T11:15:58.369Z,951.94
2018-01-11T11:16:58.373Z,951.96
2018-01-11T11:17:58.381Z,951.89
2018-01-11T11:18:58.379Z,951.94
2018-01-11T11:19:58.382Z,951.94
2018-01-11T11:20:58.387Z,951.93
2018-01-11T11:21:58.390Z,951.92
2018-01-11T11:22:58.395Z,951.92
2018-01-11T11:23:58.399Z,951.91
2018-01-11T11:24:58.403Z,951.93
2018-01-11T11:25:58.405Z,951.90
2018-01-11T11:26:58.411Z,951.89
2018-01-11T11:27:58.412Z,951.89
2018-01-11T11:28:58.418Z,951.92
2018-01-11T11:29:58.422Z,951.93
2018-01-11T11:30:58.424Z,951.94
2018-01-11T11:31:58.428Z,951.89
2018-01-11T11:32:58.431Z,951.94
2018-01-11T11:33:58.437Z,951.94
2018-01-11T11:34:58.443Z,951.93
2018-01-11T11:35:58.444Z,951.96
2018-01-11T11:36:58.448Z,951.95
2018-01-11T11:37:58.452Z,951.96
2018-01-11T11:38:58.457Z,951.90
2018-01-11T11:39:58.502Z,951.96
2018-01-11T11:40:58.466Z,951.88
2018-01-11T11:41:58.472Z,951.94
2018-01-11T11:42:58.474Z,951.94
2018-01-11T11:43:58.497Z,951.93
2018-01-11T11:44:58.482Z,951.95
2018-01-11T11:45:58.486Z,951.91
2018-01-11T11:46:58.491Z,951.93
2018-01-11T11:47:58.541Z,951.93
2018-01-11T11:48:58.502Z,951.92
2018-01-11T11:49:58.503Z,951.91
2018-01-11T11:50:58.508Z,951.95
2018-01-11T11:51:58.511Z,951.91
2018-01-11T11:52:58.516Z,951.90
2018-01-11T11:53:58.520Z,951.90
2018-01-11T11:54:58.524Z,951.89
2018-01-11T11:55:58.528Z,951.92
2018-01-11T11:56:58.535Z,951.92
2018-01-11T11:57:58.537Z,951.94
2018-01-11T11:58:58.587Z,951.99
2018-01-11T11:59:58.552Z,951.94
2018-01-11T12:00:58.550Z,951.93
2018-01-11T12:01:58.553Z,951.94
2018-01-11T12:02:58.557Z,951.91
2018-01-11T12:03:58.567Z,951.94
2018-01-11T12:04:58.570Z,951.91
2018-01-11T12:05:58.570Z,951.86
2018-01-11T12:06:58.573Z,951.92
2018-01-11T12:07:58.578Z,951.91
2018-01-11T12:08:58.581Z,951.91
2018-01-11T12:09:58.586Z,951.90
2018-01-11T12:10:58.590Z,951.88
2018-01-11T12:11:58.603Z,951.95
2018-01-11T12:12:58.596Z,951.89
2018-01-11T12:13:58.611Z,951.91
2018-01-11T12:14:58.606Z,951.89
2018-01-11T12:15:58.608Z,951.90
2018-01-11T12:16:58.612Z,951.93
2018-01-11T12:17:58.617Z,951.91
2018-01-11T12:18:58.622Z,951.96
2018-01-11T12:19:58.625Z,951.95
2018-01-11T12:20:58.631Z,951.95
2018-01-11T12:21:58.636Z,951.94
2018-01-11T12:22:58.639Z,951.98
2018-01-11T12:23:58.643Z,951.98
2018-01-11T12:24:58.647Z,952.00
2018-01-11T12:25:58.652Z,951.94
2018-01-11T12:26:58.656Z,952.08
2018-01-11T12:27:58.661Z,952.06
2018-01-11T12:28:58.666Z,952.08